Time;durP1;ratioP1;P1;durP2;ratioP2;P2;SDS_P1;SDS_P2;PMS_P1;PMS_P2;Temp;Humidity;BMP_temperature;BMP_pressure;BME280_temperature;BME280_humidity;BME280_pressure;Samples;Min_cycle;Max_cycle;Signal;HPM_P1;HPM_P2
2023/11/23 00:01:36;;;;;;;;;;;;;;;;;;5054690;28;4795;-47
2023/11/23 00:04:01;;;;;;;;;;;;;;;;;;5046370;28;4836;-49
2023/11/23 00:06:27;;;;;;;;;;;;;;;;;;5053943;28;5114;-49
2023/11/23 00:08:52;;;;;;;;;;;;;;;;;;5064304;28;1220;-55
2023/11/23 00:11:18;;;;;;;;;;;;;;;;;;5063500;28;4991;-52
2023/11/23 00:13:43;;;;;;;;;;;;;;;;;;5064266;28;5084;-52
2023/11/23 00:16:08;;;;;;;;;;;;;;;;;;5064203;28;4970;-47
2023/11/23 00:18:34;;;;;;;;;;;;;;;;;;5058644;28;4467;-47
2023/11/23 00:20:59;;;;;;;;;;;;;;;;;;5061428;28;1231;-48
2023/11/23 00:23:25;;;;;;;;;;;;;;;;;;5058202;28;4992;-52
2023/11/23 00:25:50;;;;;;;;;;;;;;;;;;5061208;28;5104;-49
2023/11/23 00:28:15;;;;;;;;;;;;;;;;;;5060751;28;4990;-49
2023/11/23 00:30:46;;;;;;;;;;;;;;;;;;5057595;28;4937;-50
2023/11/23 00:33:12;;;;;;;;;;;;;;;;;;5043687;28;4720;-48
2023/11/23 00:35:38;;;;;;;;;;;;;;;;;;5066377;28;1361;-47
2023/11/23 00:38:04;;;;;;;;;;;;;;;;;;5046094;28;5013;-51
2023/11/23 00:40:29;;;;;;;;;;;;;;;;;;5056024;28;4449;-51
2023/11/23 00:42:55;;;;;;;;;;;;;;;;;;5050455;28;4668;-49
2023/11/23 00:45:20;;;;;;;;;;;;;;;;;;5048581;28;4875;-51
2023/11/23 00:47:46;;;;;;;;;;;;;;;;;;5055600;28;1282;-51
2023/11/23 00:50:11;;;;;;;;;;;;;;;;;;5051223;28;4915;-54
2023/11/23 00:52:36;;;;;;;;;;;;;;;;;;5051240;28;5044;-52
2023/11/23 00:55:04;;;;;;;;;;;;;;;;;;5056389;28;5023;-51
2023/11/23 00:57:43;;;;;;;;;;;;;;;;;;5068549;28;5061;-47
2023/11/23 01:00:09;;;;;;;;;;;;;;;;;;5052212;28;5139;-46
2023/11/23 01:02:35;;;;;;;;;;;;;;;;;;5056268;28;1914;-47
2023/11/23 01:05:01;;;;;;;;;;;;;;;;;;5035054;28;5055;-46
2023/11/23 01:07:26;;;;;;;;;;;;;;;;;;5047220;28;5112;-47
2023/11/23 01:09:51;;;;;;;;;;;;;;;;;;5057913;28;4622;-50
2023/11/23 01:12:16;;;;;;;;;;;;;;;;;;5067981;28;4565;-49
2023/11/23 01:14:42;;;;;;;;;;;;;;;;;;5046171;28;1091;-46
2023/11/23 01:17:08;;;;;;;;;;;;;;;;;;5044710;28;5033;-46
2023/11/23 01:19:33;;;;;;;;;;;;;;;;;;5045536;28;4894;-46
2023/11/23 01:21:58;;;;;;;;;;;;;;;;;;5044715;28;4720;-50
2023/11/23 01:24:23;;;;;;;;;;;;;;;;;;5048338;28;4486;-46
2023/11/23 01:26:49;;;;;;;;;;;;;;;;;;5044404;28;1212;-46
2023/11/23 01:29:14;;;;;;;;;;;;;;;;;;5045639;28;5081;-46
2023/11/23 01:31:39;;;;;;;;;;;;;;;;;;5067741;28;4665;-51
2023/11/23 01:34:05;;;;;;;;;;;;;;;;;;5067901;28;4501;-52
2023/11/23 01:36:30;;;;;;;;;;;;;;;;;;5042189;28;4488;-45
2023/11/23 01:38:56;;;;;;;;;;;;;;;;;;5064464;28;1350;-49
2023/11/23 01:41:38;;;;;;;;;;;;;;;;;;5057354;28;4975;-47
2023/11/23 01:44:04;;;;;;;;;;;;;;;;;;5045338;28;4584;-46
2023/11/23 01:46:29;;;;;;;;;;;;;;;;;;5056674;28;5075;-47
2023/11/23 01:48:54;;;;;;;;;;;;;;;;;;5055333;28;5131;-46
2023/11/23 01:51:20;;;;;;;;;;;;;;;;;;5067441;28;4475;-48
2023/11/23 01:53:45;;;;;;;;;;;;;;;;;;5019119;28;972;-49
2023/11/23 01:56:10;;;;;;;;;;;;;;;;;;5009988;28;4487;-47
2023/11/23 01:58:36;;;;;;;;;;;;;;;;;;5050474;28;5178;-48
2023/11/23 02:01:02;;;;;;;;;;;;;;;;;;5055095;28;5064;-47
2023/11/23 02:03:27;;;;;;;;;;;;;;;;;;5032853;28;4461;-47
2023/11/23 02:05:52;;;;;;;;;;;;;;;;;;5049253;28;1092;-52
2023/11/23 02:08:17;;;;;;;;;;;;;;;;;;5047571;28;5101;-46
2023/11/23 02:10:43;;;;;;;;;;;;;;;;;;5054002;28;5191;-55
2023/11/23 02:13:08;;;;;;;;;;;;;;;;;;5032108;28;5066;-50
2023/11/23 02:15:35;;;;;;;;;;;;;;;;;;5029777;28;5005;-47
2023/11/23 02:18:03;;;;;;;;;;;;;;;;;;5048131;28;1065;-54
2023/11/23 02:20:29;;;;;;;;;;;;;;;;;;5036987;28;5361;-49
2023/11/23 02:22:55;;;;;;;;;;;;;;;;;;5025861;28;5116;-47
2023/11/23 02:25:20;;;;;;;;;;;;;;;;;;5028177;28;5085;-47
2023/11/23 02:27:47;;;;;;;;;;;;;;;;;;5027310;28;5004;-51
2023/11/23 02:30:13;;;;;;;;;;;;;;;;;;5028565;28;5116;-49
2023/11/23 02:32:38;;;;;;;;;;;;;;;;;;5028842;28;1339;-51
2023/11/23 02:35:04;;;;;;;;;;;;;;;;;;5041324;28;5034;-47
2023/11/23 02:37:29;;;;;;;;;;;;;;;;;;5036126;28;5157;-49
2023/11/23 02:40:01;;;;;;;;;;;;;;;;;;5028442;28;4495;-49
2023/11/23 02:42:38;;;;;;;;;;;;;;;;;;5026855;28;5203;-47
2023/11/23 02:45:04;;;;;;;;;;;;;;;;;;5038213;28;1109;-48
2023/11/23 02:47:29;;;;;;;;;;;;;;;;;;5035485;28;5054;-50
2023/11/23 02:49:55;;;;;;;;;;;;;;;;;;5036472;28;5088;-49
2023/11/23 02:52:20;;;;;;;;;;;;;;;;;;5032966;28;4436;-52
2023/11/23 02:54:45;;;;;;;;;;;;;;;;;;5009783;28;5039;-46
2023/11/23 02:57:10;;;;;;;;;;;;;;;;;;5026158;28;4890;-46
2023/11/23 02:59:37;;;;;;;;;;;;;;;;;;5025653;28;1158;-46
2023/11/23 03:02:02;;;;;;;;;;;;;;;;;;5008890;28;4715;-52
2023/11/23 03:04:27;;;;;;;;;;;;;;;;;;5035413;28;4894;-50
2023/11/23 03:06:53;;;;;;;;;;;;;;;;;;5028443;28;5711;-54
2023/11/23 03:09:19;;;;;;;;;;;;;;;;;;5026314;28;5152;-50
2023/11/23 03:11:44;;;;;;;;;;;;;;;;;;5027313;28;3253;-49
2023/11/23 03:14:10;;;;;;;;;;;;;;;;;;5034037;28;4572;-50
2023/11/23 03:16:35;;;;;;;;;;;;;;;;;;5040868;28;4942;-48
2023/11/23 03:19:00;;;;;;;;;;;;;;;;;;5047444;28;5158;-48
2023/11/23 03:21:25;;;;;;;;;;;;;;;;;;5047802;28;5275;-47
2023/11/23 03:26:54;;;;;;;;;;;;;;;;;;5056480;28;5647;-48
2023/11/23 03:32:21;;;;;;;;;;;;;;;;;;5055799;28;4980;-49
2023/11/23 03:34:47;;;;;;;;;;;;;;;;;;5055634;28;5151;-47
2023/11/23 03:37:13;;;;;;;;;;;;;;;;;;5035406;28;5195;-47
2023/11/23 03:39:38;;;;;;;;;;;;;;;;;;5055444;28;5023;-47
2023/11/23 03:51:12;;;;;;;;;;;;;;;;;;5075466;28;6283;-50
2023/11/23 03:53:58;;;;;;;;;;;;;;;;;;5076199;28;1065;-48
2023/11/23 04:02:29;;;;;;;;;;;;;;;;;;5055386;28;5127;-50
2023/11/23 04:10:59;;;;;;;;;;;;;;;;;;5055060;28;5071;-49
2023/11/23 04:16:27;;;;;;;;;;;;;;;;;;5055138;28;5061;-48
2023/11/23 04:18:53;;;;;;;;;;;;;;;;;;5054049;28;4972;-50
2023/11/23 04:21:18;;;;;;;;;;;;;;;;;;5056738;28;5112;-49
2023/11/23 04:23:43;;;;;;;;;;;;;;;;;;5075199;28;1969;-51
2023/11/23 04:29:11;;;;;;;;;;;;;;;;;;5066159;28;4927;-47
2023/11/23 04:31:36;;;;;;;;;;;;;;;;;;5054114;28;4962;-47
2023/11/23 04:34:02;;;;;;;;;;;;;;;;;;5054584;28;4433;-48
2023/11/23 04:36:30;;;;;;;;;;;;;;;;;;5051433;28;5149;-53
2023/11/23 04:38:55;;;;;;;;;;;;;;;;;;5056155;28;2790;-47
2023/11/23 04:41:20;;;;;;;;;;;;;;;;;;5061148;28;5098;-48
2023/11/23 04:43:46;;;;;;;;;;;;;;;;;;5048080;28;4672;-47
2023/11/23 04:46:11;;;;;;;;;;;;;;;;;;5045396;28;4886;-46
2023/11/23 04:48:36;;;;;;;;;;;;;;;;;;5045999;28;4723;-50
2023/11/23 04:51:08;;;;;;;;;;;;;;;;;;5033912;28;3345;-50
2023/11/23 04:53:33;;;;;;;;;;;;;;;;;;5056636;28;4446;-54
2023/11/23 04:55:58;;;;;;;;;;;;;;;;;;5057035;28;5116;-50
2023/11/23 04:58:24;;;;;;;;;;;;;;;;;;5027738;28;5128;-47
2023/11/23 05:00:49;;;;;;;;;;;;;;;;;;5055149;28;5175;-48
2023/11/23 05:03:14;;;;;;;;;;;;;;;;;;5053177;28;5088;-50
2023/11/23 05:05:40;;;;;;;;;;;;;;;;;;5061181;28;2924;-54
2023/11/23 05:08:05;;;;;;;;;;;;;;;;;;5058192;28;4591;-50
2023/11/23 05:10:30;;;;;;;;;;;;;;;;;;5055959;28;5005;-52
2023/11/23 05:12:55;;;;;;;;;;;;;;;;;;5029519;28;5153;-48
2023/11/23 05:15:21;;;;;;;;;;;;;;;;;;5043592;28;4898;-50
2023/11/23 05:17:46;;;;;;;;;;;;;;;;;;5044155;28;2959;-53
2023/11/23 05:20:12;;;;;;;;;;;;;;;;;;5044767;28;4865;-50
2023/11/23 05:22:38;;;;;;;;;;;;;;;;;;5039943;28;5101;-49
2023/11/23 05:25:03;;;;;;;;;;;;;;;;;;5043203;28;5102;-49
2023/11/23 05:27:29;;;;;;;;;;;;;;;;;;5061468;28;4922;-50
2023/11/23 05:29:54;;;;;;;;;;;;;;;;;;5054949;28;4655;-51
2023/11/23 05:32:26;;;;;;;;;;;;;;;;;;5049097;28;5075;-47
2023/11/23 05:34:52;;;;;;;;;;;;;;;;;;5059651;28;5153;-49
2023/11/23 05:37:17;;;;;;;;;;;;;;;;;;5056045;28;4635;-49
2023/11/23 05:39:43;;;;;;;;;;;;;;;;;;5050105;28;4725;-50
2023/11/23 05:42:09;;;;;;;;;;;;;;;;;;5057576;28;5438;-50
2023/11/23 05:44:34;;;;;;;;;;;;;;;;;;5053702;28;2537;-50
2023/11/23 05:46:59;;;;;;;;;;;;;;;;;;5055670;28;5112;-48
2023/11/23 05:49:30;;;;;;;;;;;;;;;;;;5048205;28;5339;-49
2023/11/23 05:51:55;;;;;;;;;;;;;;;;;;5063099;28;4688;-48
2023/11/23 05:54:21;;;;;;;;;;;;;;;;;;5057394;28;4699;-55
2023/11/23 05:56:47;;;;;;;;;;;;;;;;;;5046270;28;3277;-54
2023/11/23 05:59:12;;;;;;;;;;;;;;;;;;5012997;28;4496;-56
2023/11/23 06:01:38;;;;;;;;;;;;;;;;;;5050189;28;5030;-55
2023/11/23 06:04:04;;;;;;;;;;;;;;;;;;5051479;28;5198;-55
2023/11/23 06:06:29;;;;;;;;;;;;;;;;;;5045597;28;5187;-55
2023/11/23 06:08:54;;;;;;;;;;;;;;;;;;5030494;28;2602;-55
2023/11/23 06:11:20;;;;;;;;;;;;;;;;;;5068451;28;5111;-55
2023/11/23 06:13:48;;;;;;;;;;;;;;;;;;5054404;28;4694;-55
2023/11/23 06:16:14;;;;;;;;;;;;;;;;;;5048786;28;4493;-56
2023/11/23 06:18:39;;;;;;;;;;;;;;;;;;5062031;28;4481;-55
2023/11/23 06:21:24;;;;;;;;;;;;;;;;;;5063443;28;2953;-54
2023/11/23 06:23:50;;;;;;;;;;;;;;;;;;5052461;28;4956;-55
2023/11/23 06:26:20;;;;;;;;;;;;;;;;;;5059028;28;4449;-55
2023/11/23 06:28:45;;;;;;;;;;;;;;;;;;5063327;28;4898;-55
2023/11/23 06:31:10;;;;;;;;;;;;;;;;;;5058198;28;5428;-55
2023/11/23 06:33:36;;;;;;;;;;;;;;;;;;5048673;28;5009;-55
2023/11/23 06:36:01;;;;;;;;;;;;;;;;;;5052526;28;3303;-55
2023/11/23 06:38:28;;;;;;;;;;;;;;;;;;5052729;28;5276;-56
2023/11/23 06:40:55;;;;;;;;;;;;;;;;;;5036506;28;5468;-54
2023/11/23 06:43:20;;;;;;;;;;;;;;;;;;5045743;28;4550;-56
2023/11/23 06:45:45;;;;;;;;;;;;;;;;;;5050750;28;5270;-55
2023/11/23 06:48:11;;;;;;;;;;;;;;;;;;5052781;28;4707;-58
2023/11/23 06:50:36;;;;;;;;;;;;;;;;;;5055561;28;2923;-53
2023/11/23 06:53:02;;;;;;;;;;;;;;;;;;5046156;28;5135;-60
2023/11/23 06:55:27;;;;;;;;;;;;;;;;;;5044269;28;4587;-53
2023/11/23 06:57:52;;;;;;;;;;;;;;;;;;5045360;28;4586;-57
2023/11/23 07:00:27;;;;;;;;;;;;;;;;;;5045649;28;4974;-54
2023/11/23 07:02:53;;;;;;;;;;;;;;;;;;5030915;28;1977;-58
2023/11/23 07:05:19;;;;;;;;;;;;;;;;;;5031559;28;5129;-55
2023/11/23 07:07:47;;;;;;;;;;;;;;;;;;5014955;28;5230;-54
2023/11/23 07:10:13;;;;;;;;;;;;;;;;;;5043918;28;4628;-54
2023/11/23 07:12:39;;;;;;;;;;;;;;;;;;5045303;28;4958;-56
2023/11/23 07:15:05;;;;;;;;;;;;;;;;;;5028662;28;1295;-55
2023/11/23 07:17:30;;;;;;;;;;;;;;;;;;5046201;28;5056;-58
2023/11/23 07:19:56;;;;;;;;;;;;;;;;;;5045983;28;5032;-54
2023/11/23 07:22:21;;;;;;;;;;;;;;;;;;5047405;28;4462;-54
2023/11/23 07:24:46;;;;;;;;;;;;;;;;;;5062159;28;5051;-54
2023/11/23 07:27:36;;;;;;;;;;;;;;;;;;5060225;28;4986;-56
2023/11/23 07:30:07;;;;;;;;;;;;;;;;;;5066102;28;4774;-54
2023/11/23 07:32:33;;;;;;;;;;;;;;;;;;5061130;28;4418;-55
2023/11/23 07:34:59;;;;;;;;;;;;;;;;;;5046646;28;4936;-54
2023/11/23 07:37:25;;;;;;;;;;;;;;;;;;5031286;28;5011;-55
2023/11/23 07:39:50;;;;;;;;;;;;;;;;;;5045344;28;5039;-57
2023/11/23 07:42:16;;;;;;;;;;;;;;;;;;5046237;28;4513;-56
2023/11/23 07:44:46;;;;;;;;;;;;;;;;;;5046999;28;1025;-54
2023/11/23 07:47:13;;;;;;;;;;;;;;;;;;5027809;28;4959;-61
2023/11/23 07:49:39;;;;;;;;;;;;;;;;;;5046642;28;4468;-55
2023/11/23 07:52:04;;;;;;;;;;;;;;;;;;5030848;28;4656;-61
2023/11/23 07:54:30;;;;;;;;;;;;;;;;;;5044667;28;4787;-57
2023/11/23 07:56:55;;;;;;;;;;;;;;;;;;5047601;28;1126;-58
2023/11/23 07:59:21;;;;;;;;;;;;;;;;;;5048233;28;5006;-57
2023/11/23 08:01:56;;;;;;;;;;;;;;;;;;5046175;28;5236;-54
2023/11/23 08:04:22;;;;;;;;;;;;;;;;;;5049511;28;4495;-55
2023/11/23 08:06:47;;;;;;;;;;;;;;;;;;5047860;28;5143;-56
2023/11/23 08:09:16;;;;;;;;;;;;;;;;;;5048689;28;4873;-55
2023/11/23 08:11:41;;;;;;;;;;;;;;;;;;5058217;28;1149;-56
2023/11/23 08:14:06;;;;;;;;;;;;;;;;;;5055118;28;4996;-57
2023/11/23 08:16:36;;;;;;;;;;;;;;;;;;5045528;28;5041;-55
2023/11/23 08:19:03;;;;;;;;;;;;;;;;;;5045341;28;4984;-55
2023/11/23 08:21:28;;;;;;;;;;;;;;;;;;5026083;28;5058;-54
2023/11/23 08:23:54;;;;;;;;;;;;;;;;;;5045535;28;1975;-54
2023/11/23 08:26:21;;;;;;;;;;;;;;;;;;5047092;28;4840;-58
2023/11/23 08:28:46;;;;;;;;;;;;;;;;;;5047059;28;4626;-59
2023/11/23 08:31:12;;;;;;;;;;;;;;;;;;5045932;28;5202;-55
2023/11/23 08:33:37;;;;;;;;;;;;;;;;;;5048267;28;5099;-55
2023/11/23 08:36:02;;;;;;;;;;;;;;;;;;5044427;28;1127;-55
2023/11/23 08:38:28;;;;;;;;;;;;;;;;;;5049082;28;4476;-59
2023/11/23 08:40:55;;;;;;;;;;;;;;;;;;5045303;28;4554;-56
2023/11/23 08:43:20;;;;;;;;;;;;;;;;;;5047815;28;4711;-54
2023/11/23 08:45:46;;;;;;;;;;;;;;;;;;5043766;28;5017;-54
2023/11/23 08:48:26;;;;;;;;;;;;;;;;;;5046363;28;4999;-54
2023/11/23 08:50:52;;;;;;;;;;;;;;;;;;5044204;28;1372;-56
2023/11/23 08:53:17;;;;;;;;;;;;;;;;;;5044049;28;5406;-55
2023/11/23 08:55:45;;;;;;;;;;;;;;;;;;5046695;28;4533;-57
2023/11/23 08:58:10;;;;;;;;;;;;;;;;;;5043679;28;4961;-56
2023/11/23 09:00:36;;;;;;;;;;;;;;;;;;5026375;28;5136;-59
2023/11/23 09:03:04;;;;;;;;;;;;;;;;;;5027639;28;2299;-55
2023/11/23 09:05:30;;;;;;;;;;;;;;;;;;5043837;28;4460;-56
2023/11/23 09:07:55;;;;;;;;;;;;;;;;;;5026930;28;4622;-56
2023/11/23 09:10:23;;;;;;;;;;;;;;;;;;5047472;28;5122;-55
2023/11/23 09:12:48;;;;;;;;;;;;;;;;;;5043324;28;4599;-57
2023/11/23 09:15:15;;;;;;;;;;;;;;;;;;5043924;28;5204;-56
2023/11/23 09:17:41;;;;;;;;;;;;;;;;;;5046553;28;1193;-54
2023/11/23 09:20:08;;;;;;;;;;;;;;;;;;5044361;28;4997;-55
2023/11/23 09:22:33;;;;;;;;;;;;;;;;;;5022581;28;5255;-54
2023/11/23 09:24:59;;;;;;;;;;;;;;;;;;5043412;28;4487;-56
2023/11/23 09:27:24;;;;;;;;;;;;;;;;;;5044360;28;4884;-55
2023/11/23 09:29:50;;;;;;;;;;;;;;;;;;5063064;28;4639;-57
2023/11/23 09:32:16;;;;;;;;;;;;;;;;;;5029967;28;4846;-54
2023/11/23 09:34:41;;;;;;;;;;;;;;;;;;5049545;28;4557;-54
2023/11/23 09:37:06;;;;;;;;;;;;;;;;;;5043041;28;4980;-58
2023/11/23 09:39:34;;;;;;;;;;;;;;;;;;5045319;28;5049;-56
2023/11/23 09:42:01;;;;;;;;;;;;;;;;;;5043787;28;1973;-66
2023/11/23 09:44:26;;;;;;;;;;;;;;;;;;5043289;28;4652;-56
2023/11/23 09:46:52;;;;;;;;;;;;;;;;;;5044942;28;5058;-55
2023/11/23 09:49:18;;;;;;;;;;;;;;;;;;5034715;28;4616;-55
2023/11/23 09:51:44;;;;;;;;;;;;;;;;;;5045457;28;5022;-62
2023/11/23 09:54:10;;;;;;;;;;;;;;;;;;5028214;28;5284;-56
2023/11/23 09:56:35;;;;;;;;;;;;;;;;;;5029169;28;2586;-58
2023/11/23 09:59:01;;;;;;;;;;;;;;;;;;5044837;28;4550;-55
2023/11/23 10:01:27;;;;;;;;;;;;;;;;;;5046528;28;5620;-60
2023/11/23 10:03:55;;;;;;;;;;;;;;;;;;5043748;28;5179;-62
2023/11/23 10:06:21;;;;;;;;;;;;;;;;;;5044111;28;5063;-53
2023/11/23 10:08:48;;;;;;;;;;;;;;;;;;5027869;28;1142;-53
2023/11/23 10:11:14;;;;;;;;;;;;;;;;;;5031542;28;4898;-54
2023/11/23 10:13:39;;;;;;;;;;;;;;;;;;5025030;28;5097;-55
2023/11/23 10:16:05;;;;;;;;;;;;;;;;;;5044583;28;4657;-55
2023/11/23 10:18:37;;;;;;;;;;;;;;;;;;5043561;28;4987;-56
2023/11/23 10:21:02;;;;;;;;;;;;;;;;;;5046441;28;1317;-54
2023/11/23 10:23:27;;;;;;;;;;;;;;;;;;5047683;28;5162;-59
2023/11/23 10:25:54;;;;;;;;;;;;;;;;;;5047785;28;5268;-53
2023/11/23 10:28:21;;;;;;;;;;;;;;;;;;5048158;28;4477;-54
2023/11/23 10:30:47;;;;;;;;;;;;;;;;;;5031018;28;5272;-54
2023/11/23 10:33:12;;;;;;;;;;;;;;;;;;5046724;28;4960;-56
2023/11/23 10:35:40;;;;;;;;;;;;;;;;;;5050597;28;1119;-55
2023/11/23 10:38:07;;;;;;;;;;;;;;;;;;5011312;28;5103;-58
2023/11/23 10:40:39;;;;;;;;;;;;;;;;;;5048331;28;5036;-56
2023/11/23 10:43:06;;;;;;;;;;;;;;;;;;5048453;28;4449;-54
2023/11/23 10:45:32;;;;;;;;;;;;;;;;;;5051048;28;4561;-54
2023/11/23 10:48:01;;;;;;;;;;;;;;;;;;5029521;28;963;-53
2023/11/23 10:50:26;;;;;;;;;;;;;;;;;;5027741;28;4442;-54
2023/11/23 10:52:54;;;;;;;;;;;;;;;;;;5048276;28;5033;-54
2023/11/23 10:55:19;;;;;;;;;;;;;;;;;;5035666;28;4952;-60
2023/11/23 10:57:46;;;;;;;;;;;;;;;;;;5048787;28;4908;-54
2023/11/23 11:00:16;;;;;;;;;;;;;;;;;;5052439;28;5075;-55
2023/11/23 11:02:42;;;;;;;;;;;;;;;;;;5030327;28;2013;-59
2023/11/23 11:05:24;;;;;;;;;;;;;;;;;;5030231;28;4635;-56
2023/11/23 11:07:54;;;;;;;;;;;;;;;;;;5047173;28;4492;-65
2023/11/23 11:10:19;;;;;;;;;;;;;;;;;;5047409;28;4428;-54
2023/11/23 11:12:45;;;;;;;;;;;;;;;;;;5047927;28;4575;-54
2023/11/23 11:15:12;;;;;;;;;;;;;;;;;;5027442;28;4493;-53
2023/11/23 11:17:38;;;;;;;;;;;;;;;;;;5029117;28;1449;-59
2023/11/23 11:20:04;;;;;;;;;;;;;;;;;;5045294;28;4938;-60
2023/11/23 11:22:29;;;;;;;;;;;;;;;;;;5047344;28;4650;-54
2023/11/23 11:24:58;;;;;;;;;;;;;;;;;;5026358;28;5137;-52
2023/11/23 11:27:24;;;;;;;;;;;;;;;;;;5029605;28;5126;-54
2023/11/23 11:29:50;;;;;;;;;;;;;;;;;;5045622;28;4502;-53
2023/11/23 11:32:17;;;;;;;;;;;;;;;;;;5047841;28;5114;-57
2023/11/23 11:34:43;;;;;;;;;;;;;;;;;;5048516;28;4908;-59
2023/11/23 11:37:09;;;;;;;;;;;;;;;;;;5046784;28;4449;-53
2023/11/23 11:39:39;;;;;;;;;;;;;;;;;;5028071;28;5052;-57
2023/11/23 11:42:05;;;;;;;;;;;;;;;;;;5047518;28;1979;-54
2023/11/23 11:44:33;;;;;;;;;;;;;;;;;;5050173;28;5133;-54
2023/11/23 11:46:58;;;;;;;;;;;;;;;;;;5047250;28;4916;-54
2023/11/23 11:49:24;;;;;;;;;;;;;;;;;;5044605;28;5123;-59
2023/11/23 11:51:49;;;;;;;;;;;;;;;;;;5044947;28;4483;-59
2023/11/23 11:54:14;;;;;;;;;;;;;;;;;;5046957;28;5086;-54
2023/11/23 11:56:40;;;;;;;;;;;;;;;;;;5027937;28;1362;-53
2023/11/23 11:59:06;;;;;;;;;;;;;;;;;;5027591;28;5039;-51
2023/11/23 12:01:33;;;;;;;;;;;;;;;;;;5044415;28;5031;-60
2023/11/23 12:04:00;;;;;;;;;;;;;;;;;;5044969;28;5045;-58
2023/11/23 12:06:27;;;;;;;;;;;;;;;;;;5045282;28;5128;-53
2023/11/23 12:08:53;;;;;;;;;;;;;;;;;;5044331;28;1076;-55
2023/11/23 12:11:22;;;;;;;;;;;;;;;;;;5047388;28;4592;-58
2023/11/23 12:13:47;;;;;;;;;;;;;;;;;;5013623;28;4679;-55
2023/11/23 12:16:13;;;;;;;;;;;;;;;;;;5044443;28;4576;-62
2023/11/23 12:18:39;;;;;;;;;;;;;;;;;;5045668;28;4916;-55
2023/11/23 12:21:11;;;;;;;;;;;;;;;;;;5045506;28;1310;-54
2023/11/23 12:23:43;;;;;;;;;;;;;;;;;;5049615;28;5221;-53
2023/11/23 12:26:09;;;;;;;;;;;;;;;;;;5027187;28;4466;-57
2023/11/23 12:28:34;;;;;;;;;;;;;;;;;;5045836;28;5388;-54
2023/11/23 12:30:59;;;;;;;;;;;;;;;;;;5048267;28;4774;-53
2023/11/23 12:33:24;;;;;;;;;;;;;;;;;;5043778;28;4901;-58
2023/11/23 12:35:50;;;;;;;;;;;;;;;;;;5044835;28;1222;-58
2023/11/23 12:38:16;;;;;;;;;;;;;;;;;;5044604;28;5155;-60
2023/11/23 12:40:41;;;;;;;;;;;;;;;;;;5045607;28;4490;-54
2023/11/23 12:43:06;;;;;;;;;;;;;;;;;;5042662;28;4712;-53
2023/11/23 12:45:35;;;;;;;;;;;;;;;;;;5044749;28;4679;-55
2023/11/23 12:48:01;;;;;;;;;;;;;;;;;;5044427;28;1080;-57
2023/11/23 12:50:33;;;;;;;;;;;;;;;;;;5045394;28;4975;-52
2023/11/23 12:52:58;;;;;;;;;;;;;;;;;;5044619;28;5087;-57
2023/11/23 12:55:24;;;;;;;;;;;;;;;;;;5045552;28;4844;-53
2023/11/23 12:57:49;;;;;;;;;;;;;;;;;;5042867;28;4501;-56
2023/11/23 13:00:15;;;;;;;;;;;;;;;;;;5025974;28;4868;-55
2023/11/23 13:02:41;;;;;;;;;;;;;;;;;;5044875;28;1913;-54
2023/11/23 13:05:12;;;;;;;;;;;;;;;;;;5026681;28;5426;-54
2023/11/23 13:07:38;;;;;;;;;;;;;;;;;;5029488;28;4609;-59
2023/11/23 13:10:05;;;;;;;;;;;;;;;;;;5048662;28;4542;-55
2023/11/23 13:12:31;;;;;;;;;;;;;;;;;;5042663;28;4542;-60
2023/11/23 13:14:56;;;;;;;;;;;;;;;;;;5045186;28;1105;-57
2023/11/23 13:17:23;;;;;;;;;;;;;;;;;;5046672;28;5001;-57
2023/11/23 13:19:48;;;;;;;;;;;;;;;;;;5028153;28;4690;-56
2023/11/23 13:22:15;;;;;;;;;;;;;;;;;;5029749;28;5185;-55
2023/11/23 13:24:41;;;;;;;;;;;;;;;;;;5049979;28;5028;-54
2023/11/23 13:27:07;;;;;;;;;;;;;;;;;;5045266;28;1152;-55
2023/11/23 13:29:35;;;;;;;;;;;;;;;;;;5025905;28;5170;-56
2023/11/23 13:32:01;;;;;;;;;;;;;;;;;;5043603;28;4636;-56
2023/11/23 13:34:26;;;;;;;;;;;;;;;;;;5009678;28;5135;-60
2023/11/23 13:36:51;;;;;;;;;;;;;;;;;;5043215;28;5283;-57
2023/11/23 13:39:19;;;;;;;;;;;;;;;;;;5044636;28;5001;-54
2023/11/23 13:41:44;;;;;;;;;;;;;;;;;;5043924;28;2081;-52
2023/11/23 13:44:10;;;;;;;;;;;;;;;;;;5043817;28;4619;-56
2023/11/23 13:46:36;;;;;;;;;;;;;;;;;;5042798;28;4888;-54
2023/11/23 13:49:01;;;;;;;;;;;;;;;;;;5043176;28;4962;-57
2023/11/23 13:51:26;;;;;;;;;;;;;;;;;;5045434;28;4873;-53
2023/11/23 13:53:52;;;;;;;;;;;;;;;;;;5043751;28;1065;-54
2023/11/23 13:56:18;;;;;;;;;;;;;;;;;;5029163;28;5025;-54
2023/11/23 13:58:44;;;;;;;;;;;;;;;;;;5047246;28;5043;-61
2023/11/23 14:01:14;;;;;;;;;;;;;;;;;;5047617;28;4549;-56
2023/11/23 14:03:39;;;;;;;;;;;;;;;;;;5049320;28;5107;-64
2023/11/23 14:06:06;;;;;;;;;;;;;;;;;;5048586;28;1162;-54
2023/11/23 14:08:31;;;;;;;;;;;;;;;;;;5046143;28;5133;-55
2023/11/23 14:10:57;;;;;;;;;;;;;;;;;;5047598;28;5031;-53
2023/11/23 14:13:22;;;;;;;;;;;;;;;;;;5046280;28;4549;-59
2023/11/23 14:15:47;;;;;;;;;;;;;;;;;;5047858;28;5048;-59
2023/11/23 14:18:14;;;;;;;;;;;;;;;;;;5048154;28;4975;-53
2023/11/23 14:20:43;;;;;;;;;;;;;;;;;;5029728;28;1327;-54
2023/11/23 14:23:08;;;;;;;;;;;;;;;;;;5027879;28;4532;-57
2023/11/23 14:25:34;;;;;;;;;;;;;;;;;;5049886;28;4858;-53
2023/11/23 14:27:59;;;;;;;;;;;;;;;;;;5054250;28;4512;-57
2023/11/23 14:30:25;;;;;;;;;;;;;;;;;;5046948;28;5098;-58
2023/11/23 14:32:50;;;;;;;;;;;;;;;;;;5046730;28;1213;-57
2023/11/23 14:35:16;;;;;;;;;;;;;;;;;;5046522;28;5194;-53
2023/11/23 14:37:43;;;;;;;;;;;;;;;;;;5046303;28;5060;-55
2023/11/23 14:40:15;;;;;;;;;;;;;;;;;;5013087;28;5174;-58
2023/11/23 14:42:44;;;;;;;;;;;;;;;;;;5046960;28;5037;-59
2023/11/23 14:45:10;;;;;;;;;;;;;;;;;;5029002;28;5033;-63
2023/11/23 14:47:36;;;;;;;;;;;;;;;;;;5047958;28;1149;-55
2023/11/23 14:50:04;;;;;;;;;;;;;;;;;;5050521;28;5018;-54
2023/11/23 14:52:30;;;;;;;;;;;;;;;;;;5031442;28;5084;-55
2023/11/23 14:54:56;;;;;;;;;;;;;;;;;;5055214;28;4970;-53
2023/11/23 14:57:21;;;;;;;;;;;;;;;;;;5047380;28;5232;-54
2023/11/23 14:59:46;;;;;;;;;;;;;;;;;;5046732;28;1275;-58
2023/11/23 15:02:13;;;;;;;;;;;;;;;;;;5046014;28;4821;-55
2023/11/23 15:04:38;;;;;;;;;;;;;;;;;;5048224;28;5078;-53
2023/11/23 15:07:04;;;;;;;;;;;;;;;;;;5047725;28;4999;-54
2023/11/23 15:12:32;;;;;;;;;;;;;;;;;;5056068;28;4914;-55
2023/11/23 15:21:09;;;;;;;;;;;;;;;;;;5060160;28;5208;-56
2023/11/23 15:29:40;;;;;;;;;;;;;;;;;;5055716;28;895;-65
2023/11/23 15:32:07;;;;;;;;;;;;;;;;;;5059104;28;3050;-56
2023/11/23 15:34:32;;;;;;;;;;;;;;;;;;5067056;28;5120;-60
2023/11/23 15:37:01;;;;;;;;;;;;;;;;;;5045513;28;4513;-58
2023/11/23 15:39:29;;;;;;;;;;;;;;;;;;5026910;28;4760;-59
2023/11/23 15:41:55;;;;;;;;;;;;;;;;;;5054859;28;1207;-59
2023/11/23 15:44:22;;;;;;;;;;;;;;;;;;5025456;28;5602;-58
2023/11/23 15:47:25;;;;;;;;;;;;;;;;;;5062393;28;5046;-59
2023/11/23 15:49:51;;;;;;;;;;;;;;;;;;5048385;28;5018;-60
2023/11/23 15:52:16;;;;;;;;;;;;;;;;;;5032536;28;4904;-59
2023/11/23 15:54:41;;;;;;;;;;;;;;;;;;5053639;28;4946;-59
2023/11/23 15:57:07;;;;;;;;;;;;;;;;;;5053417;28;4503;-60
2023/11/23 15:59:32;;;;;;;;;;;;;;;;;;5054497;28;2735;-59
2023/11/23 16:01:57;;;;;;;;;;;;;;;;;;5053025;28;4511;-56
2023/11/23 16:04:23;;;;;;;;;;;;;;;;;;5054995;28;5073;-56
2023/11/23 16:19:09;;;;;;;;;;;;;;;;;;5053045;28;4479;-53
2023/11/23 16:21:35;;;;;;;;;;;;;;;;;;5051493;28;5084;-52
2023/11/23 16:24:01;;;;;;;;;;;;;;;;;;5052889;28;1930;-60
2023/11/23 16:26:27;;;;;;;;;;;;;;;;;;5071189;28;4406;-59
2023/11/23 16:35:15;;;;;;;;;;;;;;;;;;5066292;28;5047;-53
2023/11/23 16:37:41;;;;;;;;;;;;;;;;;;5047609;28;4733;-54
2023/11/23 16:40:09;;;;;;;;;;;;;;;;;;5063590;28;5100;-57
2023/11/23 16:42:36;;;;;;;;;;;;;;;;;;5059113;28;5223;-55
2023/11/23 16:45:02;;;;;;;;;;;;;;;;;;5065201;28;2951;-54
2023/11/23 16:47:27;;;;;;;;;;;;;;;;;;5058627;28;4988;-53
2023/11/23 16:49:54;;;;;;;;;;;;;;;;;;5055783;28;5022;-54
2023/11/23 16:52:20;;;;;;;;;;;;;;;;;;5045565;28;5152;-53
2023/11/23 16:54:46;;;;;;;;;;;;;;;;;;5063820;28;4944;-54
2023/11/23 16:57:12;;;;;;;;;;;;;;;;;;5046373;28;4994;-54
2023/11/23 16:59:38;;;;;;;;;;;;;;;;;;5050425;28;1295;-55
2023/11/23 17:02:03;;;;;;;;;;;;;;;;;;5060185;28;4884;-54
2023/11/23 17:04:29;;;;;;;;;;;;;;;;;;5061467;28;5012;-55
2023/11/23 17:06:55;;;;;;;;;;;;;;;;;;5055098;28;4505;-55
2023/11/23 17:09:22;;;;;;;;;;;;;;;;;;5045197;28;4447;-55
2023/11/23 17:11:52;;;;;;;;;;;;;;;;;;5046350;28;1174;-52
2023/11/23 17:14:17;;;;;;;;;;;;;;;;;;5064059;28;4939;-52
2023/11/23 17:16:43;;;;;;;;;;;;;;;;;;5056154;28;4621;-55
2023/11/23 17:19:08;;;;;;;;;;;;;;;;;;5055040;28;4853;-55
2023/11/23 17:21:45;;;;;;;;;;;;;;;;;;5060860;28;4891;-54
2023/11/23 17:24:10;;;;;;;;;;;;;;;;;;5035239;28;5077;-53
2023/11/23 17:26:36;;;;;;;;;;;;;;;;;;5048874;28;1280;-54
2023/11/23 17:29:01;;;;;;;;;;;;;;;;;;5061535;28;4937;-53
2023/11/23 17:31:27;;;;;;;;;;;;;;;;;;5064011;28;5039;-58
2023/11/23 17:33:52;;;;;;;;;;;;;;;;;;5062513;28;5191;-57
2023/11/23 17:36:19;;;;;;;;;;;;;;;;;;5040122;28;5046;-53
2023/11/23 17:38:44;;;;;;;;;;;;;;;;;;5060676;28;1108;-55
2023/11/23 17:41:10;;;;;;;;;;;;;;;;;;5056567;28;4908;-55
2023/11/23 17:43:36;;;;;;;;;;;;;;;;;;5070021;28;4878;-55
2023/11/23 17:46:01;;;;;;;;;;;;;;;;;;5056089;28;4986;-56
2023/11/23 17:48:27;;;;;;;;;;;;;;;;;;5059525;28;5047;-54
2023/11/23 17:50:53;;;;;;;;;;;;;;;;;;5054558;28;1089;-56
2023/11/23 17:53:18;;;;;;;;;;;;;;;;;;5056108;28;4950;-55
2023/11/23 17:55:44;;;;;;;;;;;;;;;;;;5060442;28;4507;-55
2023/11/23 17:58:10;;;;;;;;;;;;;;;;;;5036853;28;5033;-54
2023/11/23 18:00:38;;;;;;;;;;;;;;;;;;5060710;28;4657;-55
2023/11/23 18:03:03;;;;;;;;;;;;;;;;;;5063046;28;1977;-53
2023/11/23 18:05:29;;;;;;;;;;;;;;;;;;5069411;28;4499;-55